Time;durP1;ratioP1;P1;durP2;ratioP2;P2;SDS_P1;SDS_P2;PMS_P1;PMS_P2;Temp;Humidity;BMP_temperature;BMP_pressure;BME280_temperature;BME280_humidity;BME280_pressure;Samples;Min_cycle;Max_cycle;Signal;HPM_P1;HPM_P2
2021/01/29 00:00:26;;;;;;;21.35;10.85;;;;;;;1.00;79.81;96436.50;1759728;81;21048;-74
2021/01/29 00:02:54;;;;;;;17.52;11.03;;;;;;;1.03;79.98;96432.00;1759871;80;21096;-74
2021/01/29 00:05:22;;;;;;;20.52;11.73;;;;;;;1.02;80.01;96441.03;1759888;81;21437;-74
2021/01/29 00:07:48;;;;;;;20.35;10.95;;;;;;;1.01;80.06;96448.23;1760066;81;21073;-74
2021/01/29 00:10:14;;;;;;;17.17;8.23;;;;;;;1.05;79.99;96453.34;1759797;81;21505;-74
2021/01/29 00:12:40;;;;;;;22.07;12.10;;;;;;;1.10;79.79;96445.89;1759745;81;21144;-74
2021/01/29 00:15:08;;;;;;;17.50;9.93;;;;;;;1.07;79.78;96454.42;1759730;80;21061;-74
2021/01/29 00:17:34;;;;;;;16.15;9.15;;;;;;;1.05;79.64;96453.34;1759849;81;21092;-74
2021/01/29 00:20:01;;;;;;;18.27;9.55;;;;;;;1.05;79.63;96457.87;1759756;80;21033;-74
2021/01/29 00:22:27;;;;;;;14.78;8.18;;;;;;;1.08;79.50;96454.16;1759835;81;21896;-74
2021/01/29 00:24:53;;;;;;;18.95;9.75;;;;;;;1.15;79.45;96446.47;1759768;81;21473;-74
2021/01/29 00:27:19;;;;;;;24.60;13.08;;;;;;;1.12;79.60;96440.59;1759875;81;21172;-74
2021/01/29 00:29:46;;;;;;;27.62;14.00;;;;;;;1.17;79.46;96437.67;1759846;80;21096;-74
2021/01/29 00:32:12;;;;;;;22.98;11.95;;;;;;;1.15;79.29;96431.27;1759819;81;21144;-74
2021/01/29 00:34:38;;;;;;;17.55;11.53;;;;;;;1.11;79.44;96435.48;1759628;80;21211;-74
2021/01/29 00:37:04;;;;;;;17.77;10.35;;;;;;;1.11;79.24;96435.48;1759821;81;21557;-74
2021/01/29 00:39:30;;;;;;;17.98;8.98;;;;;;;1.10;79.19;96427.22;1759741;80;21057;-74
2021/01/29 00:41:56;;;;;;;17.37;10.50;;;;;;;1.12;79.15;96429.12;1759790;81;21159;-74
2021/01/29 00:44:22;;;;;;;21.55;11.45;;;;;;;1.11;79.24;96428.82;1759767;80;21064;-74
2021/01/29 00:46:49;;;;;;;30.90;13.68;;;;;;;1.11;79.34;96432.32;1759773;81;21275;-74
2021/01/29 00:49:15;;;;;;;16.52;9.10;;;;;;;1.09;79.27;96432.28;1759755;80;21120;-74
2021/01/29 00:51:41;;;;;;;14.83;8.03;;;;;;;1.15;79.48;96427.26;1759772;81;21213;-74
2021/01/29 00:54:07;;;;;;;21.60;10.60;;;;;;;1.16;79.25;96425.39;1759686;80;21060;-74
2021/01/29 00:56:33;;;;;;;26.52;14.25;;;;;;;1.07;79.24;96427.74;1759923;81;21520;-74
2021/01/29 00:58:59;;;;;;;24.10;11.08;;;;;;;1.03;79.20;96433.33;1759695;80;21197;-74
2021/01/29 01:01:26;;;;;;;23.20;11.38;;;;;;;1.03;79.29;96434.13;1759744;81;21149;-74
2021/01/29 01:03:52;;;;;;;15.80;9.93;;;;;;;1.04;79.24;96442.94;1759745;80;21120;-74
2021/01/29 01:06:18;;;;;;;20.45;10.60;;;;;;;1.04;79.18;96442.41;1759735;81;21049;-74
2021/01/29 01:08:44;;;;;;;15.80;9.25;;;;;;;1.09;79.20;96442.95;1759775;80;21100;-74
2021/01/29 01:11:10;;;;;;;18.85;10.78;;;;;;;1.16;79.28;96434.73;1759865;81;21203;-74
2021/01/29 01:13:37;;;;;;;16.12;10.58;;;;;;;1.16;79.25;96434.20;1759686;80;22935;-74
2021/01/29 01:16:03;;;;;;;17.10;9.35;;;;;;;1.14;79.10;96426.98;1759721;81;21160;-74
2021/01/29 01:18:29;;;;;;;10.78;6.30;;;;;;;1.17;79.02;96435.80;1759748;80;21112;-74
2021/01/29 01:20:56;;;;;;;12.93;7.42;;;;;;;1.20;78.64;96427.30;1759839;81;21088;-74
2021/01/29 01:23:22;;;;;;;13.40;7.53;;;;;;;1.19;78.48;96430.20;1759755;80;21244;-74
2021/01/29 01:25:48;;;;;;;11.95;7.45;;;;;;;1.22;78.17;96437.70;1759755;81;21497;-74
2021/01/29 01:28:14;;;;;;;10.58;7.28;;;;;;;1.24;77.62;96436.38;1759737;80;21060;-74
2021/01/29 01:30:40;;;;;;;11.70;7.42;;;;;;;1.28;77.72;96432.15;1759720;81;21037;-74
2021/01/29 01:33:07;;;;;;;14.85;7.75;;;;;;;1.32;77.51;96441.77;1759819;80;21104;-74
2021/01/29 01:35:33;;;;;;;13.72;8.23;;;;;;;1.34;77.31;96433.77;1754400;81;21189;-74
2021/01/29 01:38:00;;;;;;;12.45;7.83;;;;;;;1.36;77.33;96440.97;1750628;80;21104;-74
2021/01/29 01:40:39;;;;;;;12.18;8.43;;;;;;;1.37;76.76;96441.27;1750607;81;21093;-74
2021/01/29 01:43:05;;;;;;;14.13;8.83;;;;;;;1.40;76.56;96442.08;1750715;80;21159;-74
2021/01/29 01:45:49;;;;;;;16.27;9.50;;;;;;;1.39;76.38;96433.80;1750737;81;21434;-74
2021/01/29 01:48:19;;;;;;;15.50;8.28;;;;;;;1.39;76.27;96439.14;1750644;80;21197;-74
2021/01/29 01:50:47;;;;;;;15.78;8.78;;;;;;;1.40;76.42;96442.61;1749036;82;21096;-74
2021/01/29 01:53:39;;;;;;;16.10;10.87;;;;;;;1.36;76.38;96446.31;1750874;80;21081;-74
2021/01/29 01:56:28;;;;;;;12.53;6.97;;;;;;;1.34;76.39;96442.30;1746152;82;21776;-74
2021/01/29 01:58:59;;;;;;;15.00;9.58;;;;;;;1.33;76.32;96452.17;1750632;80;21077;-73
2021/01/29 02:01:25;;;;;;;13.15;8.05;;;;;;;1.29;76.53;96459.11;1750617;81;22064;-74
2021/01/29 02:03:51;;;;;;;14.60;9.03;;;;;;;1.28;76.60;96472.18;1750529;80;21086;-74
2021/01/29 02:06:18;;;;;;;16.30;10.30;;;;;;;1.29;76.62;96468.45;1750597;81;21458;-74
2021/01/29 02:08:46;;;;;;;15.23;8.83;;;;;;;1.31;76.80;96462.84;1750685;80;21089;-74
2021/01/29 02:11:18;;;;;;;16.67;9.55;;;;;;;1.29;76.69;96449.77;1750709;82;21537;-74
2021/01/29 02:13:44;;;;;;;15.78;8.70;;;;;;;1.28;76.66;96459.34;1750666;80;22052;-74
2021/01/29 02:16:30;;;;;;;16.62;9.05;;;;;;;1.28;76.84;96462.01;1750631;82;21073;-74
2021/01/29 02:19:45;;;;;;;12.47;8.25;;;;;;;1.27;76.92;96463.07;1750500;80;21069;-74
2021/01/29 02:22:50;;;;;;;10.43;6.00;;;;;;;1.27;77.03;96457.20;1750614;82;21517;-74
2021/01/29 02:25:46;;;;;;;18.40;10.45;;;;;;;1.29;76.91;96460.44;1750712;81;21116;-74
2021/01/29 02:28:21;;;;;;;14.35;10.00;;;;;;;1.18;77.21;96454.75;1750685;80;21380;-74
2021/01/29 02:31:02;;;;;;;16.52;8.20;;;;;;;1.18;77.76;96452.08;1847659;76;22596;-73
2021/01/29 02:34:09;;;;;;;16.70;9.45;;;;;;;1.16;77.69;96456.08;1809202;78;21130;-74
2021/01/29 02:36:59;;;;;;;16.02;9.30;;;;;;;1.09;77.74;96465.63;1784924;80;21534;-73
2021/01/29 02:39:50;;;;;;;16.73;10.05;;;;;;;1.07;77.99;96467.23;1784870;79;20900;-73
2021/01/29 02:42:37;;;;;;;14.43;10.20;;;;;;;1.05;78.49;96469.89;1785877;80;21050;-74
2021/01/29 02:45:12;;;;;;;17.20;10.08;;;;;;;1.00;78.22;96467.97;1785577;79;21054;-73
2021/01/29 02:48:17;;;;;;;19.27;10.18;;;;;;;0.96;78.36;96474.09;1785901;80;21122;-74
2021/01/29 02:51:00;;;;;;;15.43;10.15;;;;;;;0.94;78.51;96480.19;1785843;79;21193;-74
2021/01/29 02:54:01;;;;;;;18.17;10.82;;;;;;;0.89;78.62;96490.30;1785844;79;21408;-74
2021/01/29 02:56:50;;;;;;;19.48;10.18;;;;;;;0.90;78.77;96492.44;1785991;80;21090;-74
2021/01/29 02:59:42;;;;;;;17.12;9.93;;;;;;;0.92;78.99;96484.98;1785759;79;21519;-73
2021/01/29 03:02:25;;;;;;;18.73;10.75;;;;;;;0.94;79.04;96508.20;1786015;80;21482;-74
2021/01/29 03:04:57;;;;;;;18.45;10.50;;;;;;;0.94;79.10;96503.69;1785892;79;21195;-74
2021/01/29 03:07:38;;;;;;;16.70;10.20;;;;;;;0.94;78.98;96507.69;1784291;80;20900;-74
2021/01/29 03:10:12;;;;;;;18.23;11.08;;;;;;;0.98;78.99;96514.64;1785879;79;21027;-74
2021/01/29 03:12:48;;;;;;;20.62;12.80;;;;;;;0.98;79.34;96510.11;1755573;80;21495;-74
2021/01/29 03:15:22;;;;;;;16.55;9.68;;;;;;;1.00;79.11;96516.52;1785995;80;21032;-74
2021/01/29 03:17:55;;;;;;;17.30;11.30;;;;;;;1.05;79.25;96522.70;1785876;80;21196;-74
2021/01/29 03:20:48;;;;;;;24.40;14.33;;;;;;;1.05;79.35;96521.91;1785847;80;21127;-73
2021/01/29 03:23:43;;;;;;;34.58;24.82;;;;;;;1.02;79.56;96516.53;1783740;79;21031;-75
2021/01/29 03:26:20;;;;;;;26.90;18.05;;;;;;;0.98;79.94;96518.11;1785854;80;21094;-74
2021/01/29 03:28:53;;;;;;;20.17;13.18;;;;;;;0.98;79.82;96523.98;1785807;79;21409;-74
2021/01/29 03:31:21;;;;;;;14.83;9.55;;;;;;;0.90;79.84;96522.58;1785846;80;21200;-74
2021/01/29 03:33:48;;;;;;;16.60;8.85;;;;;;;0.87;79.89;96523.09;1785701;79;21014;-74
2021/01/29 03:36:15;;;;;;;14.98;8.65;;;;;;;0.86;80.46;96528.69;1785909;80;21070;-74
2021/01/29 03:38:53;;;;;;;15.05;8.63;;;;;;;0.86;80.19;96528.16;1755806;80;21472;-74
2021/01/29 03:41:28;;;;;;;14.10;9.68;;;;;;;0.86;81.46;96534.83;1785597;80;21086;-74
2021/01/29 03:44:21;;;;;;;14.25;7.87;;;;;;;0.85;80.45;96538.52;1785340;79;21291;-74
2021/01/29 03:47:08;;;;;;;12.65;7.78;;;;;;;0.84;82.82;96537.72;1785309;79;21079;-74
2021/01/29 03:49:48;;;;;;;15.03;8.48;;;;;;;0.84;82.00;96541.72;1785244;79;21059;-73
2021/01/29 03:52:23;;;;;;;17.00;8.80;;;;;;;0.77;82.86;96544.31;1785376;80;21464;-74
2021/01/29 03:54:54;;;;;;;16.87;9.98;;;;;;;0.75;82.56;96547.24;1785219;79;21091;-75
2021/01/29 03:57:44;;;;;;;19.12;10.45;;;;;;;0.68;84.08;96551.97;1785298;79;21091;-75
2021/01/29 04:00:25;;;;;;;21.40;12.75;;;;;;;0.61;84.85;96554.59;1784966;79;21103;-74
2021/01/29 04:03:03;;;;;;;18.25;10.32;;;;;;;0.59;84.55;96556.15;1784800;79;21531;-74
2021/01/29 04:05:56;;;;;;;19.55;11.78;;;;;;;0.56;84.99;96553.47;1784767;80;21138;-74
2021/01/29 04:08:34;;;;;;;23.87;12.18;;;;;;;0.57;84.39;96566.27;1785264;79;21037;-75
2021/01/29 04:11:00;;;;;;;23.00;11.68;;;;;;;0.61;83.04;96562.06;1756163;80;22059;-73
2021/01/29 04:13:40;;;;;;;21.07;11.05;;;;;;;0.61;83.92;96566.06;1785177;79;21035;-73
2021/01/29 04:16:09;;;;;;;20.57;12.40;;;;;;;0.61;84.39;96568.72;1785360;79;21035;-74
2021/01/29 04:18:47;;;;;;;20.35;11.50;;;;;;;0.59;84.31;96563.34;1785439;79;21022;-74
2021/01/29 04:21:28;;;;;;;21.77;11.85;;;;;;;0.50;85.38;96561.13;1785499;80;21031;-74
2021/01/29 04:24:17;;;;;;;25.72;12.50;;;;;;;0.38;85.96;96557.01;1777578;79;21137;-74
2021/01/29 04:26:46;;;;;;;;;;;;;;;0.35;85.83;96566.84;1787990;80;21098;-74
2021/01/29 04:29:17;;;;;;;29.72;15.90;;;;;;;0.24;86.07;96572.03;1784777;79;20222;-74
2021/01/29 04:31:43;;;;;;;35.80;18.15;;;;;;;0.16;86.36;96568.47;1785286;79;21472;-74
2021/01/29 04:34:17;;;;;;;29.20;17.07;;;;;;;0.11;86.47;96576.95;1785301;79;20997;-74
2021/01/29 04:36:43;;;;;;;26.70;14.05;;;;;;;0.11;86.15;96571.09;1785348;80;21105;-74
2021/01/29 04:39:16;;;;;;;30.72;15.10;;;;;;;-0.02;86.71;96566.13;1785183;79;21534;-74
2021/01/29 04:42:21;;;;;;;28.07;15.38;;;;;;;-0.02;86.61;96568.26;1785267;79;21085;-73
2021/01/29 04:45:30;;;;;;;31.55;15.50;;;;;;;-0.08;87.19;96575.92;1785327;79;21114;-74
2021/01/29 04:48:28;;;;;;;25.48;13.83;;;;;;;-0.05;86.94;96573.28;1785227;79;21043;-74
2021/01/29 04:51:21;;;;;;;19.65;10.75;;;;;;;-0.05;86.54;96566.09;1785364;80;21187;-75
2021/01/29 04:54:17;;;;;;;26.75;13.08;;;;;;;-0.02;86.26;96566.13;1784939;79;21137;-74
2021/01/29 04:57:21;;;;;;;26.27;12.37;;;;;;;-0.02;86.19;96566.92;1785246;80;21063;-74
2021/01/29 05:00:04;;;;;;;29.70;14.73;;;;;;;-0.07;86.03;96573.53;1785129;79;21543;-74
2021/01/29 05:02:56;;;;;;;28.10;14.83;;;;;;;-0.06;85.52;96564.49;1785272;80;21059;-74
2021/01/29 05:05:42;;;;;;;28.85;15.23;;;;;;;-0.11;85.91;96566.27;1784060;80;22292;-75
2021/01/29 05:08:23;;;;;;;32.45;13.70;;;;;;;-0.26;86.33;96569.53;1784557;79;20995;-74
2021/01/29 05:10:55;;;;;;;31.45;15.08;;;;;;;-0.29;86.14;96566.84;1783778;80;21071;-73
2021/01/29 05:13:52;;;;;;;30.88;17.32;;;;;;;-0.40;86.29;96569.63;1783698;79;20897;-74
2021/01/29 05:16:35;;;;;;;36.53;16.32;;;;;;;-0.42;86.02;96571.20;1785289;80;21142;-74
2021/01/29 05:19:30;;;;;;;32.98;17.80;;;;;;;-0.45;85.47;96570.87;1784595;79;21885;-75
2021/01/29 05:22:43;;;;;;;34.05;16.30;;;;;;;-0.52;85.49;96560.92;1756206;80;21404;-74
2021/01/29 05:25:36;;;;;;;32.40;15.08;;;;;;;-0.54;85.28;96566.48;1785131;79;21122;-74
2021/01/29 05:28:59;;;;;;;29.98;14.55;;;;;;;-0.58;85.05;96568.84;1785213;79;21087;-75
2021/01/29 05:32:02;;;;;;;38.28;18.23;;;;;;;-0.64;85.22;96570.34;1785128;80;21039;-74
2021/01/29 05:34:47;;;;;;;35.43;16.75;;;;;;;-0.71;85.27;96573.16;1785180;79;21198;-74
2021/01/29 05:37:51;;;;;;;33.98;17.65;;;;;;;-0.78;85.38;96583.67;1785037;80;21126;-74
2021/01/29 05:40:42;;;;;;;30.65;13.98;;;;;;;-0.81;85.53;96572.20;1785152;80;21063;-74
2021/01/29 05:43:35;;;;;;;41.10;16.07;;;;;;;-0.79;85.36;96578.08;1785197;79;21031;-74
2021/01/29 05:46:24;;;;;;;29.40;15.70;;;;;;;-0.78;85.08;96573.84;1785287;79;21476;-74
2021/01/29 05:49:28;;;;;;;28.80;14.85;;;;;;;-0.76;84.84;96563.78;1785147;79;21114;-74
2021/01/29 05:52:17;;;;;;;32.48;16.70;;;;;;;-0.72;84.56;96568.08;1785013;80;21047;-74
2021/01/29 05:55:28;;;;;;;37.60;15.60;;;;;;;-0.76;84.61;96578.94;1785357;79;26426;-75
2021/01/29 05:58:20;;;;;;;31.62;14.95;;;;;;;-0.76;84.58;96575.76;1785203;79;21162;-74
2021/01/29 06:01:24;;;;;;;35.43;18.57;;;;;;;-0.77;84.71;96591.94;1785238;80;21027;-74
2021/01/29 06:04:05;;;;;;;31.95;14.58;;;;;;;-0.80;84.75;96609.19;1785260;79;21514;-74
2021/01/29 06:07:12;;;;;;;33.15;15.23;;;;;;;-0.79;84.60;96606.01;1754796;80;21091;-74
2021/01/29 06:10:04;;;;;;;34.75;19.52;;;;;;;-0.92;84.78;96610.61;1785125;79;21138;-74
2021/01/29 06:12:39;;;;;;;30.62;16.62;;;;;;;-0.99;84.77;96615.80;1784678;80;21126;-73
2021/01/29 06:15:41;;;;;;;35.33;16.65;;;;;;;-1.02;84.83;96621.08;1785204;79;21161;-74
2021/01/29 06:18:34;;;;;;;47.95;28.98;;;;;;;-1.05;84.76;96620.20;1784711;79;22025;-74
2021/01/29 06:21:09;;;;;;;71.17;48.23;;;;;;;-1.15;84.81;96612.86;1785169;79;20999;-74
2021/01/29 06:24:18;;;;;;;83.00;60.30;;;;;;;-1.08;84.45;96603.94;1783950;79;21047;-74
2021/01/29 06:27:18;;;;;;;53.08;34.50;;;;;;;-1.18;84.41;96595.27;1785189;80;21062;-75
2021/01/29 06:30:09;;;;;;;59.90;37.88;;;;;;;-1.23;84.30;96591.98;1785169;79;21409;-74
2021/01/29 06:33:16;;;;;;;97.57;44.03;;;;;;;-1.19;84.23;96587.02;1785206;79;21921;-75
2021/01/29 06:36:12;;;;;;;121.92;56.42;;;;;;;-1.22;84.04;96596.25;1785098;79;21044;-74
2021/01/29 06:38:53;;;;;;;77.15;38.28;;;;;;;-1.22;83.38;96598.91;1785244;79;21106;-75
2021/01/29 06:41:51;;;;;;;57.70;33.53;;;;;;;-1.24;83.01;96594.89;1784915;80;21524;-73
2021/01/29 06:45:06;;;;;;;40.67;22.73;;;;;;;-1.20;82.63;96602.16;1785141;79;21105;-74
2021/01/29 06:48:01;;;;;;;41.95;24.12;;;;;;;-1.17;82.35;96607.52;1785149;80;21192;-74
2021/01/29 06:50:39;;;;;;;42.38;22.15;;;;;;;-1.06;81.91;96605.83;1785190;80;21510;-74
2021/01/29 06:53:43;;;;;;;43.38;20.75;;;;;;;-1.11;81.19;96601.74;1785134;79;21063;-74
2021/01/29 06:56:43;;;;;;;55.00;22.40;;;;;;;-1.21;79.10;96591.22;1785184;80;20992;-74
2021/01/29 06:59:21;;;;;;;48.20;21.70;;;;;;;-1.03;80.15;96605.34;1784354;79;21126;-74
2021/01/29 07:02:30;;;;;;;66.90;25.75;;;;;;;-1.00;78.35;96587.59;1785229;80;21488;-74
2021/01/29 07:05:36;;;;;;;51.92;23.27;;;;;;;-0.99;77.68;96590.53;1784527;79;21436;-74
2021/01/29 07:08:43;;;;;;;62.60;29.42;;;;;;;-0.88;77.50;96590.97;1785163;79;21071;-75
2021/01/29 07:11:47;;;;;;;33.73;18.48;;;;;;;-0.84;75.94;96587.33;1784861;80;21094;-74
2021/01/29 07:14:34;;;;;;;62.03;37.20;;;;;;;-0.79;75.80;96586.05;1785117;79;21067;-74
2021/01/29 07:17:13;;;;;;;61.15;40.75;;;;;;;-0.79;74.87;96586.05;1778754;80;21456;-73
2021/01/29 07:20:12;;;;;;;38.00;25.17;;;;;;;-0.78;74.35;96585.00;1785236;79;21491;-75
2021/01/29 07:22:46;;;;;;;25.62;14.38;;;;;;;-0.69;75.87;96587.54;1785027;80;21126;-74
2021/01/29 07:25:41;;;;;;;26.23;14.87;;;;;;;-0.59;75.75;96577.08;1785221;79;21071;-74
2021/01/29 07:28:38;;;;;;;35.13;24.27;;;;;;;-0.51;76.04;96567.84;1785364;79;21463;-74
2021/01/29 07:31:33;;;;;;;28.75;19.67;;;;;;;-0.47;74.07;96553.02;1789374;79;21187;-74
2021/01/29 07:34:05;;;;;;;21.30;13.68;;;;;;;-0.41;73.87;96550.19;1796562;78;21058;-73
2021/01/29 07:36:51;;;;;;;24.05;13.68;;;;;;;-0.37;74.14;96543.31;1797239;79;21109;-74
2021/01/29 07:39:57;;;;;;;28.27;17.25;;;;;;;-0.25;74.13;96539.75;1791987;78;21145;-74
2021/01/29 07:42:52;;;;;;;22.73;12.28;;;;;;;-0.11;73.36;96531.13;1778597;79;21010;-74
2021/01/29 07:45:36;;;;;;;27.55;13.62;;;;;;;-0.15;72.91;96518.05;1797327;79;21398;-74
2021/01/29 07:48:40;;;;;;;21.12;11.45;;;;;;;0.10;74.40;96510.88;1797225;78;21454;-75
2021/01/29 07:51:27;;;;;;;25.00;12.65;;;;;;;0.05;72.99;96506.82;1797190;79;21043;-74
2021/01/29 07:54:37;;;;;;;23.77;11.80;;;;;;;0.05;73.16;96516.67;1797299;78;21085;-73
2021/01/29 07:57:44;;;;;;;21.12;10.98;;;;;;;0.07;73.56;96510.03;1797370;79;21026;-74
2021/01/29 08:00:38;;;;;;;26.97;14.23;;;;;;;-0.04;72.61;96512.31;1797292;78;22087;-74
2021/01/29 08:03:50;;;;;;;44.63;29.32;;;;;;;0.09;73.58;96503.15;1797276;78;21081;-74
2021/01/29 08:06:27;;;;;;;24.98;13.70;;;;;;;0.21;74.48;96498.47;1797201;79;21007;-74
2021/01/29 08:09:06;;;;;;;37.55;24.55;;;;;;;0.38;74.15;96495.19;1797288;78;21055;-74
2021/01/29 08:11:35;;;;;;;30.23;15.23;;;;;;;0.50;74.57;96496.35;1770940;79;21031;-74
2021/01/29 08:14:44;;;;;;;34.60;19.32;;;;;;;0.52;73.48;96490.27;1797322;78;21353;-74
2021/01/29 08:17:31;;;;;;;30.12;16.80;;;;;;;0.64;74.04;96488.23;1797349;79;21522;-73
2021/01/29 08:20:35;;;;;;;31.95;13.85;;;;;;;0.85;73.93;96501.19;1797206;78;21149;-75
2021/01/29 08:23:19;;;;;;;23.40;13.25;;;;;;;0.91;72.02;96488.71;1797028;78;21106;-73
2021/01/29 08:26:09;;;;;;;33.00;17.17;;;;;;;0.88;71.05;96483.36;1797325;79;21086;-74
2021/01/29 08:29:01;;;;;;;30.00;13.70;;;;;;;1.01;72.29;96476.24;1796926;78;21201;-74
2021/01/29 08:31:45;;;;;;;31.73;15.90;;;;;;;0.98;70.04;96476.77;1796041;79;21109;-74
2021/01/29 08:34:35;;;;;;;24.00;13.00;;;;;;;0.96;71.93;96467.42;1797186;78;21118;-75
2021/01/29 08:37:22;;;;;;;30.90;14.07;;;;;;;0.74;70.56;96470.98;1797172;79;21086;-74
2021/01/29 08:40:25;;;;;;;25.70;12.43;;;;;;;0.67;70.89;96462.91;1797307;78;21083;-74
2021/01/29 08:43:00;;;;;;;25.70;12.70;;;;;;;0.49;70.63;96449.44;1797249;78;21302;-74
2021/01/29 08:45:40;;;;;;;23.45;11.68;;;;;;;0.42;70.17;96456.83;1794811;79;21037;-74
2021/01/29 08:48:19;;;;;;;23.55;11.15;;;;;;;0.50;71.45;96457.17;1797278;78;21086;-74
2021/01/29 08:50:50;;;;;;;23.65;12.40;;;;;;;0.57;70.20;96456.97;1797039;79;21149;-73
2021/01/29 08:53:43;;;;;;;25.88;12.53;;;;;;;0.63;71.45;96460.50;1797339;78;21387;-74
2021/01/29 08:56:53;;;;;;;23.02;12.55;;;;;;;0.78;71.85;96478.76;1797104;79;21211;-74
2021/01/29 08:59:21;;;;;;;20.75;10.18;;;;;;;0.77;67.47;96469.16;1797227;78;21082;-74
2021/01/29 09:01:58;;;;;;;28.85;15.68;;;;;;;0.86;69.67;96474.02;1771236;79;21557;-74
2021/01/29 09:04:56;;;;;;;138.90;69.72;;;;;;;0.95;69.96;96479.95;1797285;78;21035;-75
2021/01/29 09:07:31;;;;;;;295.50;144.60;;;;;;;1.06;70.48;96479.49;1797493;79;21420;-74
2021/01/29 09:10:17;;;;;;;100.10;71.15;;;;;;;1.14;70.01;96475.02;1797119;78;21178;-73
2021/01/29 09:12:43;;;;;;;40.92;21.55;;;;;;;1.10;68.27;96485.38;1797128;79;21111;-75
2021/01/29 09:15:26;;;;;;;28.10;14.65;;;;;;;1.22;69.92;96482.55;1797120;78;21113;-74
2021/01/29 09:18:11;;;;;;;30.17;16.15;;;;;;;1.20;69.92;96483.34;1797153;78;21039;-73
2021/01/29 09:20:48;;;;;;;36.33;16.73;;;;;;;1.18;70.42;96473.42;1796438;79;21118;-73
2021/01/29 09:23:29;;;;;;;33.13;16.40;;;;;;;1.20;70.17;96475.83;1797207;78;22075;-74
2021/01/29 09:26:01;;;;;;;32.28;17.00;;;;;;;1.25;70.58;96470.54;1797058;79;21047;-74
2021/01/29 09:28:30;;;;;;;94.00;48.35;;;;;;;1.33;70.29;96478.06;1796853;78;21550;-74
2021/01/29 09:31:04;;;;;;;48.70;23.52;;;;;;;1.33;69.96;96474.06;1796109;79;21102;-74
2021/01/29 09:34:03;;;;;;;37.17;16.82;;;;;;;1.40;70.31;96475.97;1785269;79;21067;-74
2021/01/29 09:36:39;;;;;;;37.55;17.27;;;;;;;1.43;70.17;96469.30;1785156;79;21186;-74
2021/01/29 09:39:22;;;;;;;44.00;19.15;;;;;;;1.47;70.08;96473.88;1785085;79;21051;-73
2021/01/29 09:42:07;;;;;;;40.80;22.02;;;;;;;1.41;67.66;96462.89;1785121;80;21562;-74
2021/01/29 09:44:47;;;;;;;38.85;18.27;;;;;;;1.32;66.12;96460.45;1785151;79;21114;-74
2021/01/29 09:47:21;;;;;;;40.35;17.95;;;;;;;1.31;67.44;96452.97;1785152;80;21090;-74
2021/01/29 09:49:47;;;;;;;38.63;20.65;;;;;;;1.33;63.65;96452.17;1785120;79;21547;-74
2021/01/29 09:52:55;;;;;;;50.15;38.63;;;;;;;1.36;65.17;96443.64;1785044;80;21121;-74
2021/01/29 09:55:47;;;;;;;26.50;19.15;;;;;;;1.35;65.96;96441.23;1774687;80;21098;-74
2021/01/29 09:58:45;;;;;;;20.77;11.70;;;;;;;1.37;62.12;96437.27;1785105;79;21236;-74
2021/01/29 10:01:13;;;;;;;25.52;13.95;;;;;;;1.52;63.83;96435.72;1785175;80;21079;-73
2021/01/29 10:03:59;;;;;;;25.02;16.30;;;;;;;1.73;63.21;96430.74;1785371;79;21188;-73
2021/01/29 10:06:32;;;;;;;22.07;12.53;;;;;;;1.90;60.94;96427.33;1784964;80;21030;-74
2021/01/29 10:09:02;;;;;;;32.28;16.23;;;;;;;1.84;56.95;96428.37;1784540;79;21515;-74
2021/01/29 10:11:39;;;;;;;35.83;18.10;;;;;;;2.02;61.88;96421.73;1785204;80;21058;-74
2021/01/29 10:14:15;;;;;;;47.58;24.15;;;;;;;2.05;60.27;96428.41;1785168;79;21396;-74
2021/01/29 10:16:57;;;;;;;21.90;14.53;;;;;;;2.11;62.56;96421.48;1785261;79;22104;-73
2021/01/29 10:19:32;;;;;;;20.20;13.18;;;;;;;2.07;61.63;96416.42;1785099;79;21377;-74
2021/01/29 10:22:10;;;;;;;17.55;8.83;;;;;;;2.08;58.88;96410.54;1782246;80;21082;-74
2021/01/29 10:25:05;;;;;;;20.48;9.08;;;;;;;2.09;61.69;96410.27;1785239;79;21012;-74
2021/01/29 10:27:37;;;;;;;19.62;10.20;;;;;;;2.09;62.73;96401.45;1785159;79;21074;-73
2021/01/29 10:30:27;;;;;;;98.62;65.00;;;;;;;2.03;60.22;96397.16;1785023;79;21218;-74
2021/01/29 10:33:04;;;;;;;33.05;20.55;;;;;;;1.89;60.67;96396.87;1784983;79;21498;-73
2021/01/29 10:36:00;;;;;;;31.00;18.00;;;;;;;1.94;62.33;96386.98;1785246;80;21091;-74
2021/01/29 10:39:01;;;;;;;22.70;13.30;;;;;;;1.98;60.28;96391.28;1785212;79;21408;-73
2021/01/29 10:42:06;;;;;;;26.77;14.78;;;;;;;2.16;63.31;96380.09;1785200;80;21571;-74
2021/01/29 10:44:34;;;;;;;26.77;13.90;;;;;;;2.25;61.80;96380.36;1784783;79;21273;-74
2021/01/29 10:47:26;;;;;;;26.15;16.05;;;;;;;2.39;63.54;96376.08;1754808;80;21066;-73
2021/01/29 10:50:06;;;;;;;25.72;13.48;;;;;;;2.41;60.95;96368.61;1772640;80;21062;-74
2021/01/29 10:53:05;;;;;;;24.60;13.62;;;;;;;2.48;62.58;96359.80;1756455;80;21047;-74
2021/01/29 10:55:38;;;;;;;20.68;11.73;;;;;;;2.63;63.00;96358.96;1785445;79;21063;-74
2021/01/29 10:58:32;;;;;;;21.87;11.88;;;;;;;2.82;63.10;96359.23;1784311;79;21204;-74
2021/01/29 11:01:00;;;;;;;38.00;21.20;;;;;;;2.91;62.82;96352.25;1785136;80;21566;-73
2021/01/29 11:03:44;;;;;;;28.07;17.98;;;;;;;2.94;62.33;96339.66;1785539;79;21431;-73
2021/01/29 11:06:12;;;;;;;30.08;17.00;;;;;;;3.01;63.14;96336.70;1784999;80;21078;-73
2021/01/29 11:08:46;;;;;;;42.80;21.12;;;;;;;3.06;63.35;96337.47;1785375;79;21071;-73
2021/01/29 11:11:37;;;;;;;41.13;22.93;;;;;;;3.17;63.00;96326.76;1785408;80;22101;-74
2021/01/29 11:14:28;;;;;;;39.27;20.50;;;;;;;3.11;63.14;96325.42;1785172;79;21408;-74
2021/01/29 11:17:14;;;;;;;29.63;16.37;;;;;;;3.18;63.11;96319.79;1785255;80;21035;-74
2021/01/29 11:19:46;;;;;;;59.77;30.82;;;;;;;3.23;63.68;96322.97;1785273;79;21082;-73
2021/01/29 11:22:41;;;;;;;33.90;18.87;;;;;;;3.25;62.49;96314.15;1785312;80;21450;-74
2021/01/29 11:25:49;;;;;;;33.75;17.85;;;;;;;3.21;60.95;96307.19;1785273;79;21269;-74
2021/01/29 11:29:11;;;;;;;38.23;23.62;;;;;;;3.10;61.31;96306.43;1785432;79;21424;-73
2021/01/29 11:31:50;;;;;;;27.10;14.90;;;;;;;3.18;60.31;96306.95;1784222;80;21107;-74
2021/01/29 11:34:28;;;;;;;45.20;28.35;;;;;;;3.30;62.78;96295.38;1779097;79;21039;-74
2021/01/29 11:37:13;;;;;;;36.15;25.30;;;;;;;3.36;62.74;96284.91;1785239;80;21158;-74
2021/01/29 11:40:00;;;;;;;27.10;14.85;;;;;;;3.40;63.26;96273.89;1785270;79;21194;-74
2021/01/29 11:42:49;;;;;;;26.12;13.20;;;;;;;3.40;62.51;96268.00;1779850;80;21031;-73
2021/01/29 11:45:23;;;;;;;24.77;12.37;;;;;;;3.51;63.33;96263.95;1785372;80;21070;-74
2021/01/29 11:48:07;;;;;;;26.57;14.05;;;;;;;3.50;61.26;96265.00;1755232;80;21098;-73
2021/01/29 11:51:01;;;;;;;26.20;14.33;;;;;;;3.54;63.01;96255.35;1784788;80;21118;-74
2021/01/29 11:53:50;;;;;;;27.10;12.85;;;;;;;3.56;62.76;96256.67;1785227;79;21360;-74
2021/01/29 11:56:20;;;;;;;27.65;15.23;;;;;;;3.48;60.29;96251.89;1785357;79;21078;-73
2021/01/29 11:59:27;;;;;;;28.73;14.80;;;;;;;3.55;62.60;96244.90;1785219;79;21051;-74
2021/01/29 12:02:35;;;;;;;26.85;14.18;;;;;;;3.57;63.07;96241.39;1785231;80;21491;-73
2021/01/29 12:05:24;;;;;;;29.23;15.83;;;;;;;3.62;63.45;96234.14;1785261;79;21090;-74
2021/01/29 12:08:08;;;;;;;26.97;14.47;;;;;;;3.49;61.28;96226.71;1782755;79;21208;-74
2021/01/29 12:11:12;;;;;;;36.83;21.23;;;;;;;3.43;62.09;96223.83;1785265;80;21082;-74
2021/01/29 12:13:55;;;;;;;35.15;23.05;;;;;;;3.49;62.68;96221.35;1785256;79;21429;-73
2021/01/29 12:16:28;;;;;;;27.80;14.47;;;;;;;3.55;62.58;96216.77;1785337;80;21102;-74
2021/01/29 12:18:55;;;;;;;27.13;14.33;;;;;;;3.38;60.77;96219.28;1755225;80;21484;-75
2021/01/29 12:21:33;;;;;;;25.82;13.65;;;;;;;3.41;62.84;96216.58;1785349;80;21256;-74
2021/01/29 12:24:36;;;;;;;28.17;14.18;;;;;;;3.36;62.24;96221.98;1784613;79;21490;-75
2021/01/29 12:27:09;;;;;;;24.65;12.00;;;;;;;3.21;62.16;96212.70;1785067;80;21110;-74
2021/01/29 12:29:56;;;;;;;24.65;13.28;;;;;;;3.08;61.38;96198.06;1785257;79;21089;-74
2021/01/29 12:32:28;;;;;;;31.87;16.48;;;;;;;2.99;61.21;96205.03;1788678;79;21018;-75
2021/01/29 12:35:19;;;;;;;30.68;15.68;;;;;;;3.10;62.82;96201.25;1799813;78;21198;-75
2021/01/29 12:38:11;;;;;;;33.33;14.63;;;;;;;3.20;63.31;96201.20;1799687;79;21431;-73